createdAt,value
2022-10-01T00:01:15.840Z,10.21
2022-10-01T00:03:43.076Z,10.13
2022-10-01T00:06:16.623Z,9.95
2022-10-01T00:08:46.977Z,10.19
2022-10-01T00:11:19.570Z,10.09
2022-10-01T00:13:47.097Z,10.24
2022-10-01T00:16:16.752Z,10.47
2022-10-01T00:18:45.739Z,10.56
2022-10-01T00:21:19.256Z,10.44
2022-10-01T00:23:46.222Z,10.42
2022-10-01T00:26:13.655Z,10.48
2022-10-01T00:28:41.006Z,10.37
2022-10-01T00:31:08.978Z,10.37
2022-10-01T00:33:36.760Z,10.37
2022-10-01T00:36:05.444Z,10.45
2022-10-01T00:38:32.716Z,10.43
2022-10-01T00:40:59.490Z,10.43
2022-10-01T00:43:34.506Z,10.38
2022-10-01T00:46:09.590Z,10.43
2022-10-01T00:48:47.816Z,10.33
2022-10-01T00:51:14.950Z,10.23
2022-10-01T00:53:43.360Z,10.23
2022-10-01T00:56:09.859Z,10.22
2022-10-01T00:58:36.588Z,10.18
2022-10-01T01:01:03.236Z,10.10
2022-10-01T01:03:29.868Z,10.19
2022-10-01T01:05:56.604Z,10.08
2022-10-01T01:08:23.373Z,10.05
2022-10-01T01:11:08.942Z,10.12
2022-10-01T01:13:44.386Z,10.19
2022-10-01T01:16:27.921Z,10.16
2022-10-01T01:19:09.408Z,10.22
2022-10-01T01:21:42.592Z,10.40
2022-10-01T01:24:24.206Z,10.43
2022-10-01T01:27:02.623Z,10.47
2022-10-01T01:29:50.481Z,10.24
2022-10-01T01:32:38.493Z,10.24
2022-10-01T01:35:10.137Z,10.37
2022-10-01T01:37:42.280Z,10.45
2022-10-01T01:40:12.537Z,10.22
2022-10-01T01:42:42.055Z,10.34
2022-10-01T01:45:14.220Z,10.20
2022-10-01T01:47:42.254Z,10.26
2022-10-01T01:50:11.492Z,10.43
2022-10-01T01:52:38.432Z,10.56
2022-10-01T01:55:08.626Z,10.56
2022-10-01T01:57:42.211Z,10.35
2022-10-01T02:00:10.682Z,10.19
2022-10-01T02:02:39.481Z,10.44
2022-10-01T02:05:10.526Z,10.44
2022-10-01T02:07:43.156Z,10.16
2022-10-01T02:10:32.833Z,10.55
2022-10-01T02:13:18.073Z,10.64
2022-10-01T02:15:56.686Z,10.61
2022-10-01T02:18:36.815Z,10.62
2022-10-01T02:21:15.095Z,10.46
2022-10-01T02:23:51.238Z,10.42
2022-10-01T02:26:20.991Z,10.42
2022-10-01T02:28:51.235Z,10.40
2022-10-01T02:31:21.440Z,10.19
2022-10-01T02:33:52.078Z,9.98
2022-10-01T02:36:20.989Z,10.13
2022-10-01T02:38:50.220Z,10.11
2022-10-01T02:41:23.341Z,10.23
2022-10-01T02:44:05.570Z,10.43
2022-10-01T02:46:48.335Z,10.33
2022-10-01T02:49:15.103Z,10.13
2022-10-01T02:52:10.134Z,10.20
2022-10-01T02:54:54.639Z,10.34
2022-10-01T02:57:24.798Z,10.20
2022-10-01T02:59:51.824Z,10.15
2022-10-01T03:02:19.779Z,10.24
2022-10-01T03:04:48.145Z,10.27
2022-10-01T03:07:16.761Z,10.03
2022-10-01T03:09:43.364Z,10.09
2022-10-01T03:12:10.770Z,10.16
2022-10-01T03:14:39.336Z,10.34
2022-10-01T03:17:07.523Z,10.37
2022-10-01T03:19:34.353Z,10.34
2022-10-01T03:22:00.850Z,10.07
2022-10-01T03:24:27.809Z,10.28
2022-10-01T03:26:56.860Z,10.09
2022-10-01T03:29:24.426Z,10.16
2022-10-01T03:31:51.947Z,10.15
2022-10-01T03:34:19.108Z,10.18
2022-10-01T03:36:46.099Z,9.96
2022-10-01T03:39:13.255Z,9.73
2022-10-01T03:41:40.179Z,10.13
2022-10-01T03:44:06.896Z,10.17
2022-10-01T03:46:36.583Z,10.09
2022-10-01T03:49:06.753Z,9.97
2022-10-01T03:51:33.920Z,10.19
2022-10-01T03:54:00.671Z,10.31
2022-10-01T03:56:27.427Z,10.26
2022-10-01T03:58:54.387Z,10.19
2022-10-01T04:01:21.203Z,10.13
2022-10-01T04:03:49.179Z,10.06
2022-10-01T04:06:16.534Z,10.13
2022-10-01T04:08:43.439Z,10.03
2022-10-01T04:11:10.488Z,10.24
2022-10-01T04:13:37.118Z,10.47
2022-10-01T04:16:05.268Z,10.28
2022-10-01T04:18:33.208Z,10.19
2022-10-01T04:21:00.073Z,10.29
2022-10-01T04:23:27.337Z,10.23
2022-10-01T04:25:54.052Z,10.05
2022-10-01T04:28:20.663Z,10.12
2022-10-01T04:30:47.234Z,10.26
2022-10-01T04:33:16.921Z,10.17
2022-10-01T04:35:43.798Z,10.10
2022-10-01T04:38:16.156Z,10.13
2022-10-01T04:40:43.174Z,10.19
2022-10-01T04:43:13.270Z,10.35
2022-10-01T04:45:39.884Z,9.99
2022-10-01T04:48:09.800Z,10.02
2022-10-01T04:50:38.582Z,10.08
2022-10-01T04:53:05.077Z,10.05
2022-10-01T04:55:31.622Z,9.97
2022-10-01T04:57:58.184Z,9.98
2022-10-01T05:00:26.479Z,9.82
2022-10-01T05:02:56.215Z,9.84
2022-10-01T05:05:24.614Z,9.82
2022-10-01T05:07:51.276Z,9.71
2022-10-01T05:10:20.722Z,9.71
2022-10-01T05:12:48.520Z,9.72
2022-10-01T05:15:16.751Z,9.56
2022-10-01T05:17:43.449Z,9.59
2022-10-01T05:20:16.889Z,9.71
2022-10-01T05:22:44.901Z,9.60
2022-10-01T05:25:11.672Z,9.66
2022-10-01T05:27:41.920Z,9.58
2022-10-01T05:30:13.374Z,9.57
2022-10-01T05:32:40.020Z,9.39
2022-10-01T05:35:10.690Z,9.41
2022-10-01T05:37:40.244Z,9.52
2022-10-01T05:40:10.695Z,9.55
2022-10-01T05:42:45.698Z,9.59
2022-10-01T05:45:12.563Z,9.48
2022-10-01T05:47:41.254Z,9.53
2022-10-01T05:50:09.404Z,9.35
2022-10-01T05:52:37.338Z,9.50
2022-10-01T05:55:04.272Z,9.52
2022-10-01T05:57:31.322Z,9.50
2022-10-01T05:59:58.047Z,9.73
2022-10-01T06:02:24.714Z,9.67
2022-10-01T06:04:51.353Z,9.64
2022-10-01T06:07:17.844Z,9.74
2022-10-01T06:09:44.942Z,9.77
2022-10-01T06:12:12.398Z,9.73
2022-10-01T06:14:41.017Z,9.78
2022-10-01T06:17:08.789Z,9.73
2022-10-01T06:19:35.275Z,9.77
2022-10-01T06:22:01.806Z,9.79
2022-10-01T06:24:28.355Z,9.96
2022-10-01T06:26:54.861Z,9.98
2022-10-01T06:29:21.378Z,10.03
2022-10-01T06:31:47.958Z,9.90
2022-10-01T06:34:14.433Z,9.84
2022-10-01T06:36:40.963Z,9.96
2022-10-01T06:39:10.619Z,10.13
2022-10-01T06:41:41.416Z,9.97
2022-10-01T06:44:11.919Z,10.04
2022-10-01T06:46:41.481Z,9.96
2022-10-01T06:49:08.799Z,10.10
2022-10-01T06:51:53.784Z,10.18
2022-10-01T06:54:20.317Z,10.30
2022-10-01T06:56:46.990Z,10.47
2022-10-01T06:59:13.525Z,10.52
2022-10-01T07:01:40.163Z,10.65
2022-10-01T07:04:09.811Z,10.70
2022-10-01T07:06:37.921Z,10.69
2022-10-01T07:09:04.475Z,10.93
2022-10-01T07:11:31.566Z,10.99
2022-10-01T07:13:58.895Z,10.74
2022-10-01T07:16:25.414Z,10.77
2022-10-01T07:18:52.545Z,10.80
2022-10-01T07:21:19.361Z,10.73
2022-10-01T07:23:45.853Z,10.65
2022-10-01T07:26:12.448Z,10.84
2022-10-01T07:28:38.967Z,10.91
2022-10-01T07:31:11.883Z,10.87
2022-10-01T07:33:40.016Z,10.89
2022-10-01T07:36:09.409Z,10.98
2022-10-01T07:38:38.600Z,11.13
2022-10-01T07:41:06.238Z,11.07
2022-10-01T07:43:35.050Z,11.20
2022-10-01T07:46:02.011Z,11.19
2022-10-01T07:48:28.628Z,11.10
2022-10-01T07:50:55.265Z,11.11
2022-10-01T07:53:23.929Z,11.08
2022-10-01T07:55:50.426Z,11.28
2022-10-01T07:58:17.803Z,11.41
2022-10-01T08:00:45.096Z,11.56
2022-10-01T08:03:14.468Z,11.54
2022-10-01T08:05:42.797Z,11.60
2022-10-01T08:08:09.619Z,11.75
2022-10-01T08:10:38.197Z,11.88
2022-10-01T08:13:16.007Z,11.92
2022-10-01T08:15:44.451Z,11.94
2022-10-01T08:18:11.457Z,12.15
2022-10-01T08:20:42.044Z,12.19
2022-10-01T08:23:11.503Z,12.14
2022-10-01T08:25:39.724Z,12.22
2022-10-01T08:28:11.104Z,12.35
2022-10-01T08:30:42.125Z,12.38
2022-10-01T08:33:11.681Z,12.22
2022-10-01T08:35:40.381Z,12.31
2022-10-01T08:38:11.789Z,12.31
2022-10-01T08:40:49.895Z,12.36
2022-10-01T08:43:38.545Z,12.52
2022-10-01T08:46:22.851Z,12.45
2022-10-01T08:48:58.998Z,12.62
2022-10-01T08:51:29.484Z,12.43
2022-10-01T08:54:32.667Z,12.51
2022-10-01T08:57:03.311Z,12.73
2022-10-01T08:59:48.769Z,12.76
2022-10-01T09:02:20.312Z,12.79
2022-10-01T09:04:48.318Z,12.83
2022-10-01T09:07:56.657Z,12.78
2022-10-01T09:10:42.328Z,12.90
2022-10-01T09:13:27.576Z,12.98
2022-10-01T09:16:02.003Z,12.91
2022-10-01T09:19:10.971Z,13.05
2022-10-01T09:21:52.990Z,13.28
2022-10-01T09:24:32.274Z,13.26
2022-10-01T09:27:00.758Z,13.23
2022-10-01T09:29:38.626Z,13.20
2022-10-01T09:32:09.344Z,13.37
2022-10-01T09:34:40.294Z,13.11
2022-10-01T09:37:23.880Z,13.48
2022-10-01T09:39:53.136Z,13.55
2022-10-01T09:42:23.952Z,13.39
2022-10-01T09:44:50.592Z,13.51
2022-10-01T09:47:20.322Z,13.63
2022-10-01T09:49:49.362Z,13.69
2022-10-01T09:52:34.832Z,13.75
2022-10-01T09:55:03.658Z,13.82
2022-10-01T09:57:46.239Z,13.94
2022-10-01T10:00:20.019Z,13.80
2022-10-01T10:02:51.681Z,13.92
2022-10-01T10:05:18.399Z,13.99
2022-10-01T10:07:46.914Z,13.92
2022-10-01T10:10:25.325Z,13.96
2022-10-01T10:13:09.489Z,14.00
2022-10-01T10:15:41.326Z,13.96
2022-10-01T10:18:21.526Z,14.10
2022-10-01T10:20:52.937Z,14.25
2022-10-01T10:23:29.278Z,14.19
2022-10-01T10:26:03.616Z,14.43
2022-10-01T10:28:44.644Z,14.52
2022-10-01T10:31:15.991Z,14.41
2022-10-01T10:33:51.209Z,14.75
2022-10-01T10:36:19.726Z,14.58
2022-10-01T10:38:53.734Z,14.67
2022-10-01T10:41:26.410Z,14.84
2022-10-01T10:44:00.626Z,14.69
2022-10-01T10:46:45.915Z,14.71
2022-10-01T10:49:22.101Z,14.98
2022-10-01T10:51:55.806Z,14.85
2022-10-01T10:54:31.494Z,14.96
2022-10-01T10:57:02.855Z,14.90
2022-10-01T10:59:32.213Z,14.94
2022-10-01T11:02:14.519Z,14.97
2022-10-01T11:04:47.513Z,14.93
2022-10-01T11:07:21.252Z,14.90
2022-10-01T11:10:03.135Z,15.04
2022-10-01T11:12:39.416Z,15.12
2022-10-01T11:15:32.352Z,15.22
2022-10-01T11:18:01.667Z,15.28
2022-10-01T11:20:33.638Z,15.06
2022-10-01T11:23:13.809Z,14.99
2022-10-01T11:26:10.413Z,15.03
2022-10-01T11:28:44.376Z,15.45
2022-10-01T11:31:34.272Z,15.48
2022-10-01T11:34:13.083Z,15.60
2022-10-01T11:36:50.948Z,15.60
2022-10-01T11:39:26.104Z,15.88
2022-10-01T11:42:03.964Z,16.18
2022-10-01T11:44:39.237Z,16.38
2022-10-01T11:47:09.659Z,16.68
2022-10-01T11:50:00.793Z,16.76
2022-10-01T11:52:27.974Z,16.96
2022-10-01T11:55:40.447Z,17.15
2022-10-01T11:58:50.839Z,17.44
2022-10-01T12:01:47.772Z,17.55
2022-10-01T12:04:58.249Z,17.55
2022-10-01T12:07:55.594Z,17.76
2022-10-01T12:10:50.831Z,17.80
2022-10-01T12:13:58.305Z,18.30
2022-10-01T12:16:39.472Z,18.95
2022-10-01T12:19:18.740Z,20.09
2022-10-01T12:21:56.951Z,21.20
2022-10-01T12:24:38.252Z,21.38
2022-10-01T12:27:34.040Z,21.50
2022-10-01T12:30:03.548Z,20.93
2022-10-01T12:33:09.959Z,20.69
2022-10-01T12:36:08.504Z,20.09
2022-10-01T12:38:58.541Z,19.99
2022-10-01T12:41:42.131Z,19.68
2022-10-01T12:44:29.933Z,19.77
2022-10-01T12:47:15.066Z,19.65
2022-10-01T12:49:47.323Z,19.54
2022-10-01T12:52:25.263Z,19.44
2022-10-01T12:55:00.771Z,19.53
2022-10-01T12:57:39.318Z,19.82
2022-10-01T13:00:15.468Z,19.72
2022-10-01T13:03:12.218Z,20.00
2022-10-01T13:05:57.020Z,20.18
2022-10-01T13:08:44.899Z,20.33
2022-10-01T13:11:40.286Z,20.55
2022-10-01T13:14:13.110Z,20.65
2022-10-01T13:16:42.384Z,20.59
2022-10-01T13:19:19.703Z,20.93
2022-10-01T13:21:59.544Z,21.73
2022-10-01T13:24:55.655Z,22.66
2022-10-01T13:27:38.299Z,22.79
2022-10-01T13:30:14.884Z,22.86
2022-10-01T13:33:00.996Z,23.26
2022-10-01T13:35:35.618Z,23.51
2022-10-01T13:38:38.895Z,23.73
2022-10-01T13:41:19.169Z,24.02
2022-10-01T13:43:59.168Z,23.84
2022-10-01T13:46:32.492Z,23.93
2022-10-01T13:49:10.921Z,24.43
2022-10-01T13:51:41.500Z,24.52
2022-10-01T13:54:22.243Z,24.22
2022-10-01T13:56:48.769Z,24.13
2022-10-01T13:59:31.746Z,23.89
2022-10-01T14:01:58.624Z,23.87
2022-10-01T14:04:38.468Z,24.25
2022-10-01T14:07:23.147Z,24.03
2022-10-01T14:09:53.671Z,23.75
2022-10-01T14:12:45.176Z,24.04
2022-10-01T14:15:42.427Z,24.04
2022-10-01T14:18:15.829Z,23.80
2022-10-01T14:21:05.123Z,23.75
2022-10-01T14:24:06.827Z,22.98
2022-10-01T14:26:48.424Z,23.36
2022-10-01T14:29:39.561Z,23.15
2022-10-01T14:32:24.347Z,22.20
2022-10-01T14:35:19.301Z,21.66
2022-10-01T14:37:46.334Z,21.46
2022-10-01T14:40:19.958Z,21.63
2022-10-01T14:43:14.364Z,21.66
2022-10-01T14:45:52.101Z,21.59
2022-10-01T14:48:18.899Z,21.43
2022-10-01T14:50:52.118Z,21.28
2022-10-01T14:53:20.747Z,21.07
2022-10-01T14:55:49.528Z,20.88
2022-10-01T14:58:42.825Z,20.98
2022-10-01T15:01:35.472Z,21.05
2022-10-01T15:04:02.098Z,21.02
2022-10-01T15:06:29.963Z,20.91
2022-10-01T15:09:08.058Z,20.82
2022-10-01T15:11:34.823Z,20.68
2022-10-01T15:14:04.795Z,20.60
2022-10-01T15:16:33.406Z,20.46
2022-10-01T15:19:03.849Z,20.38
2022-10-01T15:21:34.810Z,20.13
2022-10-01T15:24:04.287Z,20.11
2022-10-01T15:26:32.790Z,20.05
2022-10-01T15:29:16.669Z,20.00
2022-10-01T15:31:46.329Z,19.81
2022-10-01T15:34:15.432Z,19.75
2022-10-01T15:36:47.279Z,19.77
2022-10-01T15:39:36.431Z,19.82
2022-10-01T15:42:23.546Z,19.87
2022-10-01T15:44:50.476Z,19.91
2022-10-01T15:47:20.034Z,19.83
2022-10-01T15:50:16.615Z,19.93
2022-10-01T15:53:08.465Z,20.02
2022-10-01T15:55:52.353Z,20.03
2022-10-01T15:58:33.352Z,20.03
2022-10-01T16:01:09.426Z,20.00
2022-10-01T16:04:03.733Z,20.07
2022-10-01T16:06:37.702Z,20.04
2022-10-01T16:09:16.111Z,19.86
2022-10-01T16:12:22.307Z,19.80
2022-10-01T16:14:59.494Z,19.72
2022-10-01T16:17:32.098Z,19.64
2022-10-01T16:20:01.391Z,19.59
2022-10-01T16:22:37.465Z,19.49
2022-10-01T16:25:07.235Z,19.44
2022-10-01T16:27:45.396Z,19.17
2022-10-01T16:30:20.801Z,19.34
2022-10-01T16:32:48.458Z,19.11
2022-10-01T16:35:19.172Z,19.26
2022-10-01T16:37:48.337Z,19.18
2022-10-01T16:40:16.327Z,19.24
2022-10-01T16:42:44.794Z,19.02
2022-10-01T16:45:16.998Z,19.15
2022-10-01T16:47:45.173Z,18.95
2022-10-01T16:50:14.418Z,18.96
2022-10-01T16:52:44.580Z,19.03
2022-10-01T16:55:18.876Z,18.94
2022-10-01T16:57:45.432Z,18.87
2022-10-01T17:00:19.992Z,18.85
2022-10-01T17:02:47.170Z,18.75
2022-10-01T17:05:22.571Z,18.70
2022-10-01T17:07:56.083Z,18.72
2022-10-01T17:10:23.672Z,18.58
2022-10-01T17:12:56.004Z,18.31
2022-10-01T17:15:27.430Z,18.40
2022-10-01T17:17:55.118Z,18.09
2022-10-01T17:20:22.329Z,18.21
2022-10-01T17:22:49.729Z,18.18
2022-10-01T17:25:32.157Z,18.23
2022-10-01T17:28:00.834Z,18.02
2022-10-01T17:30:31.617Z,18.00
2022-10-01T17:33:02.483Z,18.08
2022-10-01T17:35:29.901Z,17.98
2022-10-01T17:37:57.184Z,17.91
2022-10-01T17:40:24.119Z,18.01
2022-10-01T17:42:50.797Z,18.03
2022-10-01T17:45:17.877Z,17.92
2022-10-01T17:47:46.069Z,17.95
2022-10-01T17:50:14.768Z,17.86
2022-10-01T17:52:50.259Z,17.85
2022-10-01T17:55:17.432Z,17.79
2022-10-01T17:57:43.980Z,17.83
2022-10-01T18:00:14.623Z,17.86
2022-10-01T18:02:43.664Z,17.99
2022-10-01T18:05:14.438Z,17.92
2022-10-01T18:07:43.736Z,17.90
2022-10-01T18:10:13.366Z,17.94
2022-10-01T18:12:44.459Z,17.81
2022-10-01T18:15:13.710Z,17.85
2022-10-01T18:17:49.653Z,17.65
2022-10-01T18:20:22.065Z,17.80
2022-10-01T18:22:49.709Z,17.65
2022-10-01T18:25:16.737Z,17.58
2022-10-01T18:27:43.589Z,17.52
2022-10-01T18:30:13.959Z,17.48
2022-10-01T18:32:44.827Z,17.44
2022-10-01T18:35:28.049Z,17.52
2022-10-01T18:38:20.679Z,17.39
2022-10-01T18:40:56.908Z,17.32
2022-10-01T18:43:25.893Z,17.53
2022-10-01T18:46:30.064Z,17.60
2022-10-01T18:49:14.254Z,17.54
2022-10-01T18:52:21.475Z,17.53
2022-10-01T18:55:06.060Z,17.58
2022-10-01T18:57:50.944Z,17.52
2022-10-01T19:00:25.583Z,17.44
2022-10-01T19:02:58.075Z,17.47
2022-10-01T19:05:55.932Z,17.59
2022-10-01T19:08:29.074Z,17.56
2022-10-01T19:11:22.567Z,17.49
2022-10-01T19:14:14.223Z,17.53
2022-10-01T19:17:11.935Z,17.46
2022-10-01T19:20:03.086Z,17.33
2022-10-01T19:23:13.183Z,17.34
2022-10-01T19:25:50.829Z,17.29
2022-10-01T19:28:29.275Z,17.28
2022-10-01T19:31:43.322Z,17.30
2022-10-01T19:34:18.676Z,17.34
2022-10-01T19:36:52.638Z,17.31
2022-10-01T19:39:23.380Z,17.25
2022-10-01T19:42:02.204Z,17.29
2022-10-01T19:44:55.595Z,17.24
2022-10-01T19:47:38.778Z,17.31
2022-10-01T19:50:19.875Z,17.30
2022-10-01T19:52:51.335Z,17.29
2022-10-01T19:55:20.741Z,17.30
2022-10-01T19:57:47.717Z,17.29
2022-10-01T20:00:20.158Z,17.22
2022-10-01T20:03:07.377Z,17.20
2022-10-01T20:06:03.610Z,17.19
2022-10-01T20:08:52.907Z,17.17
2022-10-01T20:11:32.543Z,17.12
2022-10-01T20:14:56.277Z,17.14
2022-10-01T20:17:27.906Z,17.12
2022-10-01T20:20:17.009Z,17.14
2022-10-01T20:23:05.339Z,17.24
2022-10-01T20:25:34.635Z,17.28
2022-10-01T20:28:31.271Z,17.26
2022-10-01T20:31:16.032Z,17.34
2022-10-01T20:34:06.889Z,17.37
2022-10-01T20:36:42.516Z,17.32
2022-10-01T20:39:28.194Z,17.31
2022-10-01T20:41:56.281Z,17.29
2022-10-01T20:44:32.931Z,17.26
2022-10-01T20:47:06.627Z,17.52
2022-10-01T20:49:47.393Z,17.71
2022-10-01T20:52:28.850Z,17.76
2022-10-01T20:55:14.216Z,17.56
2022-10-01T20:57:48.124Z,17.45
2022-10-01T21:00:26.871Z,17.44
2022-10-01T21:03:14.365Z,17.43
2022-10-01T21:05:47.381Z,17.65
2022-10-01T21:08:42.419Z,17.43
2022-10-01T21:11:25.806Z,17.28
2022-10-01T21:14:03.324Z,17.18
2022-10-01T21:17:07.362Z,17.12
2022-10-01T21:19:46.027Z,16.96
2022-10-01T21:22:45.743Z,16.97
2022-10-01T21:25:53.445Z,17.11
2022-10-01T21:28:49.808Z,16.92
2022-10-01T21:31:34.941Z,16.94
2022-10-01T21:34:10.422Z,17.09
2022-10-01T21:36:55.482Z,17.01
2022-10-01T21:39:33.096Z,17.20
2022-10-01T21:42:44.572Z,17.10
2022-10-01T21:45:22.624Z,17.03
2022-10-01T21:48:04.763Z,16.98
2022-10-01T21:50:58.662Z,16.94
2022-10-01T21:53:55.488Z,16.90
2022-10-01T21:56:32.867Z,16.89
2022-10-01T21:59:17.441Z,16.96
2022-10-01T22:01:48.836Z,16.99
2022-10-01T22:04:27.290Z,17.16
2022-10-01T22:07:05.449Z,17.05
2022-10-01T22:09:43.071Z,17.04
2022-10-01T22:12:11.364Z,17.11
2022-10-01T22:14:41.999Z,17.08
2022-10-01T22:17:17.671Z,17.01
2022-10-01T22:19:52.302Z,16.90
2022-10-01T22:22:29.253Z,16.78
2022-10-01T22:24:59.757Z,16.83
2022-10-01T22:27:53.247Z,16.75
2022-10-01T22:30:25.960Z,16.78
2022-10-01T22:33:12.667Z,16.81
2022-10-01T22:35:46.339Z,16.79
2022-10-01T22:38:29.705Z,16.77
2022-10-01T22:41:12.164Z,16.86
2022-10-01T22:43:41.027Z,16.83
2022-10-01T22:46:44.676Z,16.92
2022-10-01T22:49:36.911Z,17.09
2022-10-01T22:52:17.888Z,17.38
2022-10-01T22:55:19.357Z,17.52
2022-10-01T22:57:55.032Z,17.34
2022-10-01T23:00:21.674Z,17.17
2022-10-01T23:03:21.612Z,17.16
2022-10-01T23:06:01.710Z,17.05
2022-10-01T23:08:49.631Z,17.17
2022-10-01T23:11:28.305Z,17.08
2022-10-01T23:14:25.176Z,17.21
2022-10-01T23:17:11.874Z,17.10
2022-10-01T23:19:53.942Z,17.05
2022-10-01T23:22:39.230Z,17.06
2022-10-01T23:25:33.645Z,17.21
2022-10-01T23:28:21.489Z,17.39
2022-10-01T23:31:12.263Z,17.46
2022-10-01T23:34:10.181Z,17.32
2022-10-01T23:36:48.083Z,17.17
2022-10-01T23:39:45.739Z,17.05
2022-10-01T23:42:12.235Z,16.97
2022-10-01T23:44:50.079Z,16.95
2022-10-01T23:47:22.357Z,17.01
2022-10-01T23:49:57.546Z,17.20
2022-10-01T23:52:36.771Z,17.15
2022-10-01T23:55:34.803Z,16.98
2022-10-01T23:58:03.819Z,16.91
